createdAt,value
2023-08-08T00:00:03.522Z,100231.11
2023-08-08T00:02:38.863Z,100222.19
2023-08-08T00:05:13.267Z,100203.30
2023-08-08T00:07:46.862Z,100189.81
2023-08-08T00:10:20.375Z,100174.45
2023-08-08T00:12:54.384Z,100169.06
2023-08-08T00:15:28.113Z,100163.92
2023-08-08T00:18:01.774Z,100167.44
2023-08-08T00:20:35.593Z,100174.70
2023-08-08T00:23:09.671Z,100178.48
2023-08-08T00:25:43.001Z,100184.16
2023-08-08T00:28:16.107Z,100189.01
2023-08-08T00:30:49.415Z,100184.94
2023-08-08T00:33:22.980Z,100185.22
2023-08-08T00:35:56.088Z,100186.83
2023-08-08T00:38:30.107Z,100193.83
2023-08-08T00:41:03.574Z,100187.55
2023-08-08T00:43:37.589Z,100187.53
2023-08-08T00:46:12.241Z,100181.05
2023-08-08T00:48:46.104Z,100192.91
2023-08-08T00:51:20.016Z,100183.20
2023-08-08T00:53:54.647Z,100174.56
2023-08-08T00:56:28.642Z,100182.10
2023-08-08T00:59:02.027Z,100183.17
2023-08-08T01:01:35.517Z,100184.25
2023-08-08T01:04:09.820Z,100192.86
2023-08-08T01:06:57.807Z,100196.63
2023-08-08T01:09:38.729Z,100193.39
2023-08-08T01:12:15.397Z,100187.45
2023-08-08T01:14:48.702Z,100189.59
2023-08-08T01:17:23.617Z,100194.19
2023-08-08T01:19:56.951Z,100201.45
2023-08-08T01:22:38.097Z,100204.42
2023-08-08T01:25:12.993Z,100207.36
2023-08-08T01:27:46.672Z,100209.51
2023-08-08T01:30:19.807Z,100217.88
2023-08-08T01:32:53.080Z,100224.58
2023-08-08T01:35:31.391Z,100229.17
2023-08-08T01:38:12.503Z,100242.89
2023-08-08T01:40:48.085Z,100246.94
2023-08-08T01:43:23.790Z,100250.15
2023-08-08T01:45:58.131Z,100254.44
2023-08-08T01:48:32.621Z,100257.64
2023-08-08T01:51:05.987Z,100255.98
2023-08-08T01:53:39.197Z,100260.27
2023-08-08T01:56:12.875Z,100270.73
2023-08-08T01:58:46.255Z,100268.00
2023-08-08T02:01:20.240Z,100273.90
2023-08-08T02:03:54.109Z,100261.22
2023-08-08T02:06:29.315Z,100252.02
2023-08-08T02:09:02.274Z,100258.72
2023-08-08T02:11:36.315Z,100269.77
2023-08-08T02:14:09.490Z,100274.59
2023-08-08T02:16:43.629Z,100273.77
2023-08-08T02:19:17.520Z,100266.17
2023-08-08T02:21:51.636Z,100277.72
2023-08-08T02:24:25.123Z,100278.23
2023-08-08T02:26:58.310Z,100272.53
2023-08-08T02:29:31.508Z,100282.73
2023-08-08T02:32:06.938Z,100287.84
2023-08-08T02:34:40.275Z,100280.51
2023-08-08T02:37:13.535Z,100295.86
2023-08-08T02:39:48.390Z,100304.17
2023-08-08T02:42:22.794Z,100318.47
2023-08-08T02:44:56.585Z,100334.61
2023-08-08T02:47:30.044Z,100333.55
2023-08-08T02:50:04.111Z,100317.39
2023-08-08T02:52:38.110Z,100317.39
2023-08-08T02:55:13.510Z,100297.73
2023-08-08T02:57:47.321Z,100289.65
2023-08-08T03:00:22.337Z,100269.18
2023-08-08T03:02:57.317Z,100275.39
2023-08-08T03:05:30.757Z,100282.64
2023-08-08T03:08:04.206Z,100274.56
2023-08-08T03:10:37.526Z,100283.47
2023-08-08T03:13:11.173Z,100295.30
2023-08-08T03:15:45.958Z,100304.44
2023-08-08T03:18:20.380Z,100308.20
2023-08-08T03:20:53.785Z,100307.38
2023-08-08T03:23:26.952Z,100312.47
2023-08-08T03:26:00.342Z,100307.03
2023-08-08T03:28:33.724Z,100320.72
2023-08-08T03:31:06.754Z,100299.19
2023-08-08T03:33:40.745Z,100297.33
2023-08-08T03:36:15.557Z,100294.05
2023-08-08T03:38:50.089Z,100293.25
2023-08-08T03:41:23.559Z,100307.50
2023-08-08T03:43:57.609Z,100310.45
2023-08-08T03:46:31.272Z,100324.98
2023-08-08T03:49:04.634Z,100327.91
2023-08-08T03:51:37.767Z,100325.48
2023-08-08T03:54:12.384Z,100330.03
2023-08-08T03:56:45.785Z,100337.04
2023-08-08T03:59:19.440Z,100332.72
2023-08-08T04:01:52.890Z,100348.31
2023-08-08T04:04:26.376Z,100358.51
2023-08-08T04:07:00.626Z,100367.91
2023-08-08T04:09:35.465Z,100358.45
2023-08-08T04:12:10.571Z,100350.88
2023-08-08T04:14:43.647Z,100354.63
2023-08-08T04:17:16.911Z,100364.83
2023-08-08T04:19:52.056Z,100373.39
2023-08-08T04:22:25.250Z,100372.03
2023-08-08T04:24:59.283Z,100366.08
2023-08-08T04:27:33.387Z,100359.08
2023-08-08T04:30:10.376Z,100364.69
2023-08-08T04:32:43.469Z,100387.04
2023-08-08T04:35:16.963Z,100388.90
2023-08-08T04:37:49.938Z,100391.85
2023-08-08T04:40:23.511Z,100425.42
2023-08-08T04:42:56.967Z,100441.83
2023-08-08T04:45:30.522Z,100441.83
2023-08-08T04:48:04.122Z,100448.27
2023-08-08T04:50:37.741Z,100452.24
2023-08-08T04:53:11.066Z,100455.42
2023-08-08T04:55:44.645Z,100454.86
2023-08-08T04:58:17.920Z,100455.12
2023-08-08T05:00:52.330Z,100456.17
2023-08-08T05:03:25.821Z,100448.91
2023-08-08T05:06:01.071Z,100440.61
2023-08-08T05:08:34.607Z,100440.34
2023-08-08T05:11:07.885Z,100438.72
2023-08-08T05:13:41.973Z,100440.27
2023-08-08T05:16:15.437Z,100438.91
2023-08-08T05:18:48.716Z,100446.14
2023-08-08T05:21:22.986Z,100456.89
2023-08-08T05:23:56.985Z,100457.13
2023-08-08T05:26:30.203Z,100453.03
2023-08-08T05:29:04.502Z,100444.73
2023-08-08T05:31:38.402Z,100429.66
2023-08-08T05:34:12.357Z,100422.66
2023-08-08T05:36:46.335Z,100422.09
2023-08-08T05:39:19.535Z,100435.27
2023-08-08T05:41:53.627Z,100434.21
2023-08-08T05:44:27.431Z,100424.78
2023-08-08T05:47:01.336Z,100443.60
2023-08-08T05:49:34.407Z,100456.48
2023-08-08T05:52:10.079Z,100461.02
2023-08-08T05:54:43.670Z,100459.73
2023-08-08T05:57:16.730Z,100461.10
2023-08-08T05:59:49.879Z,100452.58
2023-08-08T06:02:23.000Z,100455.84
2023-08-08T06:04:56.585Z,100466.94
2023-08-08T06:07:30.356Z,100458.61
2023-08-08T06:10:04.245Z,100454.63
2023-08-08T06:12:37.641Z,100435.31
2023-08-08T06:15:13.038Z,100443.11
2023-08-08T06:17:45.774Z,100437.73
2023-08-08T06:20:19.889Z,100439.63
2023-08-08T06:22:53.466Z,100440.69
2023-08-08T06:25:29.331Z,100462.77
2023-08-08T06:28:03.338Z,100476.79
2023-08-08T06:30:36.735Z,100482.48
2023-08-08T06:33:10.883Z,100499.75
2023-08-08T06:35:44.477Z,100507.03
2023-08-08T06:38:17.629Z,100519.64
2023-08-08T06:40:51.685Z,100512.89
2023-08-08T06:43:25.038Z,100511.27
2023-08-08T06:46:00.326Z,100516.64
2023-08-08T06:48:33.303Z,100512.33
2023-08-08T06:51:06.909Z,100522.52
2023-08-08T06:53:39.986Z,100533.50
2023-08-08T06:56:13.967Z,100530.23
2023-08-08T06:58:48.176Z,100524.86
2023-08-08T07:01:22.536Z,100523.00
2023-08-08T07:03:55.991Z,100546.95
2023-08-08T07:06:29.184Z,100555.28
2023-08-08T07:09:02.428Z,100553.65
2023-08-08T07:11:35.646Z,100557.14
2023-08-08T07:14:08.977Z,100552.10
2023-08-08T07:16:42.137Z,100559.91
2023-08-08T07:19:15.136Z,100558.85
2023-08-08T07:21:48.589Z,100559.42
2023-08-08T07:24:21.750Z,100570.76
2023-08-08T07:26:54.778Z,100570.76
2023-08-08T07:29:29.215Z,100562.69
2023-08-08T07:32:05.116Z,100569.20
2023-08-08T07:34:38.573Z,100573.88
2023-08-08T07:37:12.465Z,100570.70
2023-08-08T07:39:45.898Z,100566.45
2023-08-08T07:42:19.064Z,100557.06
2023-08-08T07:44:53.039Z,100543.95
2023-08-08T07:47:26.837Z,100541.33
2023-08-08T07:50:01.833Z,100546.56
2023-08-08T07:52:35.009Z,100538.06
2023-08-08T07:55:09.953Z,100529.56
2023-08-08T07:57:43.222Z,100526.45
2023-08-08T08:00:19.931Z,100544.87
2023-08-08T08:02:53.234Z,100564.12
2023-08-08T08:05:26.899Z,100571.20
2023-08-08T08:08:00.831Z,100557.56
2023-08-08T08:10:34.754Z,100555.80
2023-08-08T08:13:09.390Z,100564.56
2023-08-08T08:15:43.461Z,100557.98
2023-08-08T08:18:19.450Z,100558.66
2023-08-08T08:20:54.235Z,100559.56
2023-08-08T08:23:27.666Z,100560.73
2023-08-08T08:26:01.345Z,100571.66
2023-08-08T08:28:35.455Z,100570.68
2023-08-08T08:31:10.936Z,100564.58
2023-08-08T08:33:44.542Z,100563.27
2023-08-08T08:36:17.879Z,100558.23
2023-08-08T08:38:51.070Z,100554.78
2023-08-08T08:41:27.611Z,100557.00
2023-08-08T08:44:02.396Z,100565.69
2023-08-08T08:46:38.461Z,100556.83
2023-08-08T08:49:12.122Z,100558.20
2023-08-08T08:51:45.834Z,100557.44
2023-08-08T08:54:20.727Z,100565.33
2023-08-08T08:56:54.626Z,100565.63
2023-08-08T08:59:28.672Z,100561.06
2023-08-08T09:02:03.413Z,100566.24
2023-08-08T09:04:37.430Z,100565.98
2023-08-08T09:07:11.959Z,100570.34
2023-08-08T09:09:46.603Z,100571.74
2023-08-08T09:12:21.063Z,100563.67
2023-08-08T09:14:58.723Z,100567.77
2023-08-08T09:20:13.281Z,100572.42
2023-08-08T09:22:46.644Z,100574.60
2023-08-08T09:25:20.174Z,100583.05
2023-08-08T09:27:54.906Z,100579.00
2023-08-08T09:30:28.643Z,100584.96
2023-08-08T09:33:04.661Z,100582.55
2023-08-08T09:35:40.517Z,100591.23
2023-08-08T09:38:13.976Z,100602.59
2023-08-08T09:40:48.093Z,100616.36
2023-08-08T09:43:21.377Z,100615.66
2023-08-08T09:45:56.156Z,100625.77
2023-08-08T09:48:34.332Z,100629.01
2023-08-08T09:51:09.075Z,100633.97
2023-08-08T09:53:43.550Z,100629.52
2023-08-08T09:56:19.029Z,100643.94
2023-08-08T09:58:53.126Z,100640.02
2023-08-08T10:01:27.777Z,100651.36
2023-08-08T10:04:01.995Z,100640.34
2023-08-08T10:06:35.314Z,100619.72
2023-08-08T10:09:10.057Z,100623.34
2023-08-08T10:11:45.586Z,100629.67
2023-08-08T10:14:19.219Z,100637.13
2023-08-08T10:16:52.551Z,100633.30
2023-08-08T10:19:27.865Z,100628.17
2023-08-08T10:22:06.264Z,100630.37
2023-08-08T10:24:40.824Z,100628.80
2023-08-08T10:27:14.289Z,100634.27
2023-08-08T10:29:51.206Z,100633.50
2023-08-08T10:32:28.758Z,100634.13
2023-08-08T10:35:08.281Z,100625.05
2023-08-08T10:37:42.414Z,100620.55
2023-08-08T10:40:21.498Z,100628.43
2023-08-08T10:42:57.189Z,100629.61
2023-08-08T10:45:34.121Z,100627.53
2023-08-08T10:48:15.416Z,100626.84
2023-08-08T10:50:49.386Z,100626.72
2023-08-08T10:53:25.178Z,100629.01
2023-08-08T10:56:04.296Z,100624.31
2023-08-08T10:58:43.263Z,100629.09
2023-08-08T11:01:18.130Z,100631.71
2023-08-08T11:03:52.432Z,100643.75
2023-08-08T11:06:26.005Z,100641.70
2023-08-08T11:08:59.463Z,100644.76
2023-08-08T11:11:38.235Z,100647.84
2023-08-08T11:14:17.214Z,100641.46
2023-08-08T11:16:52.249Z,100632.88
2023-08-08T11:19:26.622Z,100636.41
2023-08-08T11:22:00.273Z,100641.05
2023-08-08T11:24:38.618Z,100635.66
2023-08-08T11:27:11.881Z,100629.69
2023-08-08T11:29:51.577Z,100631.29
2023-08-08T11:32:25.172Z,100638.84
2023-08-08T11:34:58.850Z,100646.94
2023-08-08T11:37:32.495Z,100651.52
2023-08-08T11:40:07.588Z,100646.04
2023-08-08T11:42:42.619Z,100637.06
2023-08-08T11:45:16.888Z,100644.85
2023-08-08T11:47:53.544Z,100638.02
2023-08-08T11:50:29.223Z,100628.48
2023-08-08T11:53:04.779Z,100635.20
2023-08-08T11:55:42.705Z,100627.25
2023-08-08T11:58:18.288Z,100631.78
2023-08-08T12:00:51.589Z,100624.38
2023-08-08T12:03:25.056Z,100627.53
2023-08-08T12:05:58.458Z,100621.75
2023-08-08T12:08:35.587Z,100614.07
2023-08-08T12:11:09.385Z,100609.11
2023-08-08T12:13:44.232Z,100597.64
2023-08-08T12:16:18.543Z,100610.03
2023-08-08T12:18:52.929Z,100606.98
2023-08-08T12:21:27.100Z,100608.02
2023-08-08T12:24:00.495Z,100606.03
2023-08-08T12:26:34.725Z,100608.42
2023-08-08T12:29:08.182Z,100599.10
2023-08-08T12:31:41.814Z,100596.26
2023-08-08T12:34:15.504Z,100599.64
2023-08-08T12:36:48.702Z,100590.86
2023-08-08T12:39:23.808Z,100585.65
2023-08-08T12:41:57.576Z,100587.13
2023-08-08T12:44:31.093Z,100584.77
2023-08-08T12:47:05.580Z,100571.36
2023-08-08T12:49:39.510Z,100580.48
2023-08-08T12:52:12.962Z,100574.00
2023-08-08T12:54:46.477Z,100576.86
2023-08-08T12:57:20.212Z,100574.56
2023-08-08T12:59:53.834Z,100573.88
2023-08-08T13:02:27.433Z,100561.78
2023-08-08T13:05:02.187Z,100574.72
2023-08-08T13:07:35.696Z,100568.61
2023-08-08T13:10:11.913Z,100565.28
2023-08-08T13:12:45.057Z,100573.45
2023-08-08T13:15:18.877Z,100567.41
2023-08-08T13:17:52.139Z,100568.32
2023-08-08T13:20:25.321Z,100567.72
2023-08-08T13:22:58.472Z,100564.89
2023-08-08T13:25:32.590Z,100568.63
2023-08-08T13:28:06.531Z,100570.53
2023-08-08T13:30:40.129Z,100564.99
2023-08-08T13:33:13.245Z,100570.44
2023-08-08T13:35:46.209Z,100567.02
2023-08-08T13:38:19.558Z,100562.60
2023-08-08T13:40:53.096Z,100566.34
2023-08-08T13:43:26.397Z,100576.13
2023-08-08T13:46:01.505Z,100577.53
2023-08-08T13:48:35.107Z,100580.26
2023-08-08T13:51:09.040Z,100580.05
2023-08-08T13:53:42.234Z,100585.91
2023-08-08T13:56:16.040Z,100585.12
2023-08-08T13:58:49.353Z,100590.06
2023-08-08T14:01:22.868Z,100586.23
2023-08-08T14:03:57.161Z,100593.99
2023-08-08T14:06:31.944Z,100592.77
2023-08-08T14:09:05.889Z,100592.77
2023-08-08T14:11:40.014Z,100601.78
2023-08-08T14:14:14.252Z,100592.16
2023-08-08T14:16:47.462Z,100597.02
2023-08-08T14:19:21.006Z,100593.78
2023-08-08T14:21:55.241Z,100601.06
2023-08-08T14:24:28.716Z,100596.21
2023-08-08T14:27:02.522Z,100591.88
2023-08-08T14:29:35.713Z,100594.20
2023-08-08T14:32:12.074Z,100590.26
2023-08-08T14:34:45.385Z,100592.38
2023-08-08T14:37:18.760Z,100593.17
2023-08-08T14:39:52.257Z,100590.16
2023-08-08T14:42:25.351Z,100596.61
2023-08-08T14:44:59.157Z,100598.73
2023-08-08T14:47:32.855Z,100600.64
2023-08-08T14:50:07.072Z,100592.45
2023-08-08T14:52:40.158Z,100597.01
2023-08-08T14:55:13.949Z,100597.11
2023-08-08T14:57:47.360Z,100599.45
2023-08-08T15:00:21.064Z,100608.66
2023-08-08T15:02:54.390Z,100607.64
2023-08-08T15:05:27.945Z,100603.40
2023-08-08T15:08:01.709Z,100602.67
2023-08-08T15:10:36.106Z,100596.17
2023-08-08T15:13:09.454Z,100592.76
2023-08-08T15:15:43.038Z,100591.42
2023-08-08T15:18:15.972Z,100593.14
2023-08-08T15:20:50.165Z,100589.91
2023-08-08T15:23:23.989Z,100589.91
2023-08-08T15:25:59.750Z,100589.91
2023-08-08T15:28:33.354Z,100587.78
2023-08-08T15:31:07.044Z,100582.14
2023-08-08T15:33:40.758Z,100580.02
2023-08-08T15:36:14.676Z,100579.19
2023-08-08T15:38:47.623Z,100583.34
2023-08-08T15:41:21.512Z,100582.80
2023-08-08T15:43:54.751Z,100590.18
2023-08-08T15:46:28.248Z,100596.73
2023-08-08T15:49:01.543Z,100599.33
2023-08-08T15:51:34.954Z,100601.34
2023-08-08T15:54:09.791Z,100600.33
2023-08-08T15:56:43.845Z,100608.78
2023-08-08T15:59:18.000Z,100605.55
2023-08-08T16:01:51.262Z,100607.48
2023-08-08T16:04:24.510Z,100605.86
2023-08-08T16:06:58.051Z,100615.42
2023-08-08T16:09:32.402Z,100616.06
2023-08-08T16:12:06.674Z,100615.36
2023-08-08T16:14:40.334Z,100612.71
2023-08-08T16:17:14.261Z,100630.74
2023-08-08T16:19:47.662Z,100629.99
2023-08-08T16:22:21.287Z,100633.37
2023-08-08T16:24:55.092Z,100622.29
2023-08-08T16:27:28.807Z,100628.32
2023-08-08T16:30:03.097Z,100627.28
2023-08-08T16:32:36.926Z,100634.70
2023-08-08T16:35:11.977Z,100632.88
2023-08-08T16:37:45.456Z,100634.84
2023-08-08T16:40:18.784Z,100633.28
2023-08-08T16:42:52.572Z,100639.89
2023-08-08T16:45:26.389Z,100640.75
2023-08-08T16:47:59.805Z,100634.55
2023-08-08T16:50:33.448Z,100632.20
2023-08-08T16:53:07.785Z,100637.17
2023-08-08T16:55:43.247Z,100634.79
2023-08-08T16:58:17.558Z,100641.69
2023-08-08T17:00:54.865Z,100642.02
2023-08-08T17:03:28.183Z,100650.00
2023-08-08T17:06:02.519Z,100645.98
2023-08-08T17:08:36.122Z,100647.71
2023-08-08T17:11:09.982Z,100649.70
2023-08-08T17:13:44.599Z,100645.67
2023-08-08T17:16:21.410Z,100643.57
2023-08-08T17:18:55.233Z,100647.72
2023-08-08T17:21:29.378Z,100650.22
2023-08-08T17:24:03.719Z,100654.36
2023-08-08T17:26:38.716Z,100657.95
2023-08-08T17:29:12.501Z,100659.64
2023-08-08T17:31:46.034Z,100659.67
2023-08-08T17:34:19.297Z,100657.80
2023-08-08T17:36:52.693Z,100655.98
2023-08-08T17:39:26.636Z,100659.00
2023-08-08T17:42:00.869Z,100659.88
2023-08-08T17:44:36.518Z,100659.08
2023-08-08T17:47:11.163Z,100665.37
2023-08-08T17:49:45.393Z,100669.97
2023-08-08T17:52:19.825Z,100665.39
2023-08-08T17:54:54.234Z,100665.41
2023-08-08T17:57:27.960Z,100674.64
2023-08-08T18:00:02.668Z,100673.83
2023-08-08T18:02:42.714Z,100674.13
2023-08-08T18:05:16.619Z,100682.50
2023-08-08T18:07:50.630Z,100686.00
2023-08-08T18:10:25.051Z,100689.78
2023-08-08T18:12:58.235Z,100697.06
2023-08-08T18:15:31.706Z,100699.74
2023-08-08T18:18:06.499Z,100704.33
2023-08-08T18:20:40.982Z,100708.08
2023-08-08T18:23:14.693Z,100709.67
2023-08-08T18:25:47.885Z,100715.04
2023-08-08T18:28:22.497Z,100722.24
2023-08-08T18:30:56.591Z,100724.64
2023-08-08T18:33:31.024Z,100730.55
2023-08-08T18:36:05.564Z,100728.34
2023-08-08T18:38:44.038Z,100735.55
2023-08-08T18:41:18.179Z,100739.53
2023-08-08T18:43:51.782Z,100743.79
2023-08-08T18:46:25.813Z,100741.56
2023-08-08T18:48:59.329Z,100733.94
2023-08-08T18:51:34.325Z,100737.94
2023-08-08T18:54:09.840Z,100739.18
2023-08-08T18:56:43.385Z,100734.24
2023-08-08T18:59:17.331Z,100738.23
2023-08-08T19:01:54.244Z,100737.63
2023-08-08T19:04:27.597Z,100738.89
2023-08-08T19:07:01.302Z,100741.80
2023-08-08T19:09:34.799Z,100735.80
2023-08-08T19:12:10.305Z,100744.07
2023-08-08T19:14:43.828Z,100746.98
2023-08-08T19:17:18.000Z,100744.46
2023-08-08T19:19:51.691Z,100746.30
2023-08-08T19:22:28.328Z,100742.14
2023-08-08T19:25:02.470Z,100750.41
2023-08-08T19:27:36.510Z,100761.36
2023-08-08T19:30:16.772Z,100765.05
2023-08-08T19:32:50.883Z,100763.36
2023-08-08T19:35:24.830Z,100760.86
2023-08-08T19:37:59.199Z,100763.71
2023-08-08T19:40:34.915Z,100767.16
2023-08-08T19:43:08.590Z,100765.46
2023-08-08T19:45:42.680Z,100764.55
2023-08-08T19:48:17.816Z,100764.97
2023-08-08T19:50:51.424Z,100761.13
2023-08-08T19:53:25.706Z,100767.51
2023-08-08T19:56:01.808Z,100769.31
2023-08-08T19:58:36.618Z,100772.99
2023-08-08T20:01:11.639Z,100780.16
2023-08-08T20:03:45.052Z,100775.52
2023-08-08T20:06:19.037Z,100779.16
2023-08-08T20:08:56.336Z,100779.86
2023-08-08T20:11:30.376Z,100783.53
2023-08-08T20:14:07.087Z,100778.88
2023-08-08T20:16:40.770Z,100786.88
2023-08-08T20:19:14.077Z,100787.58
2023-08-08T20:21:48.010Z,100785.63
2023-08-08T20:24:22.222Z,100783.64
2023-08-08T20:26:55.677Z,100781.66
2023-08-08T20:29:30.139Z,100786.14
2023-08-08T20:32:04.030Z,100787.42
2023-08-08T20:34:37.667Z,100787.33
2023-08-08T20:37:12.269Z,100793.19
2023-08-08T20:39:46.695Z,100790.39
2023-08-08T20:42:20.652Z,100797.08
2023-08-08T20:44:55.260Z,100799.67
2023-08-08T20:47:28.691Z,100796.87
2023-08-08T20:50:02.528Z,100795.47
2023-08-08T20:52:38.874Z,100796.19
2023-08-08T20:55:13.824Z,100789.66
2023-08-08T20:57:46.964Z,100797.36
2023-08-08T21:00:22.679Z,100796.42
2023-08-08T21:02:56.948Z,100789.05
2023-08-08T21:05:30.754Z,100797.59
2023-08-08T21:08:03.956Z,100802.63
2023-08-08T21:10:38.089Z,100806.02
2023-08-08T21:13:11.888Z,100802.16
2023-08-08T21:15:46.301Z,100800.19
2023-08-08T21:18:20.003Z,100809.19
2023-08-08T21:20:53.174Z,100813.39
2023-08-08T21:23:26.493Z,100805.22
2023-08-08T21:26:00.298Z,100812.91
2023-08-08T21:28:34.771Z,100816.31
2023-08-08T21:31:07.694Z,100816.99
2023-08-08T21:33:40.673Z,100815.82
2023-08-08T21:36:14.908Z,100811.96
2023-08-08T21:38:49.316Z,100814.31
2023-08-08T21:41:23.043Z,100818.72
2023-08-08T21:43:57.609Z,100819.43
2023-08-08T21:46:31.781Z,100819.89
2023-08-08T21:49:05.403Z,100816.03
2023-08-08T21:51:38.124Z,100819.39
2023-08-08T21:54:12.156Z,100821.95
2023-08-08T21:56:47.189Z,100812.72
2023-08-08T21:59:21.065Z,100810.70
2023-08-08T22:01:54.621Z,100814.89
2023-08-08T22:04:27.830Z,100811.02
2023-08-08T22:07:02.296Z,100809.01
2023-08-08T22:09:36.869Z,100811.34
2023-08-08T22:12:11.506Z,100808.28
2023-08-08T22:14:44.938Z,100816.20
2023-08-08T22:17:19.001Z,100816.06
2023-08-08T22:19:52.211Z,100818.16
2023-08-08T22:22:26.257Z,100815.12
2023-08-08T22:25:00.254Z,100815.58
2023-08-08T22:27:33.219Z,100810.66
2023-08-08T22:30:07.767Z,100811.33
2023-08-08T22:32:41.060Z,100812.81
2023-08-08T22:35:15.476Z,100814.91
2023-08-08T22:37:49.114Z,100812.92
2023-08-08T22:40:23.128Z,100821.41
2023-08-08T22:42:56.466Z,100819.39
2023-08-08T22:45:30.740Z,100809.95
2023-08-08T22:48:04.293Z,100804.20
2023-08-08T22:50:42.246Z,100811.89
2023-08-08T22:53:16.012Z,100813.37
2023-08-08T22:55:50.017Z,100815.67
2023-08-08T22:58:23.934Z,100812.63
2023-08-08T23:00:57.843Z,100822.77
2023-08-08T23:03:32.091Z,100824.01
2023-08-08T23:06:05.445Z,100812.92
2023-08-08T23:08:39.869Z,100824.90
2023-08-08T23:11:14.071Z,100826.38
2023-08-08T23:13:47.886Z,100824.98
2023-08-08T23:16:21.014Z,100822.72
2023-08-08T23:18:53.674Z,100825.00
2023-08-08T23:33:30.839Z,100821.89
2023-08-08T23:36:04.411Z,100820.70
2023-08-08T23:38:38.202Z,100823.01
2023-08-08T23:41:11.638Z,100816.45
2023-08-08T23:43:44.821Z,100819.33
2023-08-08T23:46:18.824Z,100819.77
2023-08-08T23:48:52.941Z,100817.53
2023-08-08T23:51:26.326Z,100813.44
2023-08-08T23:53:59.592Z,100809.33
2023-08-08T23:56:32.786Z,100801.12
2023-08-08T23:59:06.184Z,100804.05
